sensor_id;sensor_type;location;lat;lon;timestamp;P1;durP1;ratioP1;P2;durP2;ratioP2
13432;SDS011;6789;47.678;9.158;2022-09-02T00:03:15;2.88;;;2.38;;
13432;SDS011;6789;47.678;9.158;2022-09-02T00:08:09;2.97;;;2.50;;
13432;SDS011;6789;47.678;9.158;2022-09-02T00:13:02;3.20;;;2.30;;
13432;SDS011;6789;47.678;9.158;2022-09-02T00:17:56;3.15;;;2.38;;
13432;SDS011;6789;47.678;9.158;2022-09-02T00:22:49;4.25;;;2.65;;
13432;SDS011;6789;47.678;9.158;2022-09-02T00:27:40;2.78;;;2.33;;
13432;SDS011;6789;47.678;9.158;2022-09-02T00:32:32;2.80;;;2.40;;
13432;SDS011;6789;47.678;9.158;2022-09-02T00:37:25;3.63;;;2.58;;
13432;SDS011;6789;47.678;9.158;2022-09-02T00:42:18;2.78;;;2.35;;
13432;SDS011;6789;47.678;9.158;2022-09-02T00:47:12;2.90;;;2.40;;
13432;SDS011;6789;47.678;9.158;2022-09-02T00:52:07;3.95;;;2.28;;
13432;SDS011;6789;47.678;9.158;2022-09-02T00:57:08;2.53;;;2.20;;
13432;SDS011;6789;47.678;9.158;2022-09-02T01:02:09;2.50;;;2.30;;
13432;SDS011;6789;47.678;9.158;2022-09-02T01:07:04;3.95;;;2.30;;
13432;SDS011;6789;47.678;9.158;2022-09-02T01:11:57;2.58;;;2.38;;
13432;SDS011;6789;47.678;9.158;2022-09-02T01:16:54;4.25;;;2.33;;
13432;SDS011;6789;47.678;9.158;2022-09-02T01:21:53;4.68;;;2.95;;
13432;SDS011;6789;47.678;9.158;2022-09-02T01:26:47;4.45;;;3.10;;
13432;SDS011;6789;47.678;9.158;2022-09-02T01:31:44;2.90;;;2.58;;
13432;SDS011;6789;47.678;9.158;2022-09-02T01:36:37;8.18;;;4.07;;
13432;SDS011;6789;47.678;9.158;2022-09-02T01:41:30;3.33;;;2.97;;
13432;SDS011;6789;47.678;9.158;2022-09-02T01:46:22;3.53;;;3.00;;
13432;SDS011;6789;47.678;9.158;2022-09-02T01:51:15;2.42;;;2.22;;
13432;SDS011;6789;47.678;9.158;2022-09-02T01:56:10;2.67;;;2.47;;
13432;SDS011;6789;47.678;9.158;2022-09-02T02:01:03;4.22;;;2.63;;
13432;SDS011;6789;47.678;9.158;2022-09-02T02:05:55;2.40;;;2.20;;
13432;SDS011;6789;47.678;9.158;2022-09-02T02:10:47;4.47;;;2.45;;
13432;SDS011;6789;47.678;9.158;2022-09-02T02:15:41;3.00;;;2.55;;
13432;SDS011;6789;47.678;9.158;2022-09-02T02:20:34;2.63;;;2.35;;
13432;SDS011;6789;47.678;9.158;2022-09-02T02:26:08;3.67;;;2.20;;
13432;SDS011;6789;47.678;9.158;2022-09-02T02:31:16;2.70;;;2.50;;
13432;SDS011;6789;47.678;9.158;2022-09-02T02:36:08;3.80;;;2.70;;
13432;SDS011;6789;47.678;9.158;2022-09-02T02:41:00;3.70;;;2.63;;
13432;SDS011;6789;47.678;9.158;2022-09-02T02:45:54;3.00;;;2.70;;
13432;SDS011;6789;47.678;9.158;2022-09-02T02:50:46;2.97;;;2.70;;
13432;SDS011;6789;47.678;9.158;2022-09-02T02:55:38;3.13;;;2.70;;
13432;SDS011;6789;47.678;9.158;2022-09-02T03:00:31;3.55;;;2.70;;
13432;SDS011;6789;47.678;9.158;2022-09-02T03:05:25;2.80;;;2.60;;
13432;SDS011;6789;47.678;9.158;2022-09-02T03:10:18;3.67;;;2.63;;
13432;SDS011;6789;47.678;9.158;2022-09-02T03:15:12;2.50;;;2.30;;
13432;SDS011;6789;47.678;9.158;2022-09-02T03:20:07;8.55;;;3.00;;
13432;SDS011;6789;47.678;9.158;2022-09-02T03:25:15;3.10;;;2.73;;
13432;SDS011;6789;47.678;9.158;2022-09-02T03:30:26;4.37;;;2.80;;
13432;SDS011;6789;47.678;9.158;2022-09-02T03:35:40;5.27;;;3.10;;
13432;SDS011;6789;47.678;9.158;2022-09-02T03:40:50;4.03;;;3.28;;
13432;SDS011;6789;47.678;9.158;2022-09-02T03:45:57;2.92;;;2.63;;
13432;SDS011;6789;47.678;9.158;2022-09-02T03:51:04;2.60;;;2.40;;
13432;SDS011;6789;47.678;9.158;2022-09-02T03:56:19;4.20;;;3.10;;
13432;SDS011;6789;47.678;9.158;2022-09-02T04:01:39;3.57;;;3.27;;
13432;SDS011;6789;47.678;9.158;2022-09-02T04:12:42;5.27;;;3.00;;
13432;SDS011;6789;47.678;9.158;2022-09-02T04:17:48;4.60;;;2.77;;
13432;SDS011;6789;47.678;9.158;2022-09-02T04:23:00;3.67;;;2.67;;
13432;SDS011;6789;47.678;9.158;2022-09-02T04:28:07;3.37;;;2.90;;
13432;SDS011;6789;47.678;9.158;2022-09-02T04:33:18;3.83;;;2.90;;
13432;SDS011;6789;47.678;9.158;2022-09-02T04:38:25;3.17;;;2.87;;
13432;SDS011;6789;47.678;9.158;2022-09-02T04:43:32;5.10;;;3.03;;
13432;SDS011;6789;47.678;9.158;2022-09-02T04:48:43;3.77;;;3.40;;
13432;SDS011;6789;47.678;9.158;2022-09-02T04:53:50;4.37;;;3.07;;
13432;SDS011;6789;47.678;9.158;2022-09-02T04:59:01;3.50;;;3.10;;
13432;SDS011;6789;47.678;9.158;2022-09-02T05:04:05;4.67;;;3.30;;
13432;SDS011;6789;47.678;9.158;2022-09-02T05:09:16;3.22;;;2.70;;
13432;SDS011;6789;47.678;9.158;2022-09-02T05:14:24;3.88;;;2.72;;
13432;SDS011;6789;47.678;9.158;2022-09-02T05:19:32;2.83;;;2.10;;
13432;SDS011;6789;47.678;9.158;2022-09-02T05:24:39;2.20;;;2.00;;
13432;SDS011;6789;47.678;9.158;2022-09-02T05:29:57;3.10;;;2.03;;
13432;SDS011;6789;47.678;9.158;2022-09-02T05:35:05;3.33;;;1.98;;
13432;SDS011;6789;47.678;9.158;2022-09-02T05:40:36;3.88;;;2.13;;
13432;SDS011;6789;47.678;9.158;2022-09-02T05:45:48;4.22;;;2.42;;
13432;SDS011;6789;47.678;9.158;2022-09-02T05:50:56;4.07;;;1.98;;
13432;SDS011;6789;47.678;9.158;2022-09-02T05:56:17;2.45;;;2.15;;
13432;SDS011;6789;47.678;9.158;2022-09-02T06:01:36;4.32;;;1.98;;
13432;SDS011;6789;47.678;9.158;2022-09-02T06:06:53;2.22;;;2.03;;
13432;SDS011;6789;47.678;9.158;2022-09-02T06:12:04;2.53;;;2.05;;
13432;SDS011;6789;47.678;9.158;2022-09-02T06:17:12;2.30;;;2.10;;
13432;SDS011;6789;47.678;9.158;2022-09-02T06:22:21;2.03;;;1.83;;
13432;SDS011;6789;47.678;9.158;2022-09-02T06:27:40;3.00;;;2.35;;
13432;SDS011;6789;47.678;9.158;2022-09-02T06:33:03;2.72;;;2.25;;
13432;SDS011;6789;47.678;9.158;2022-09-02T06:38:13;2.92;;;2.50;;
13432;SDS011;6789;47.678;9.158;2022-09-02T06:43:20;3.13;;;2.60;;
13432;SDS011;6789;47.678;9.158;2022-09-02T06:48:42;3.90;;;2.28;;
13432;SDS011;6789;47.678;9.158;2022-09-02T06:53:58;3.63;;;2.35;;
13432;SDS011;6789;47.678;9.158;2022-09-02T06:59:37;5.38;;;2.20;;
13432;SDS011;6789;47.678;9.158;2022-09-02T07:11:17;3.08;;;2.10;;
13432;SDS011;6789;47.678;9.158;2022-09-02T07:16:32;2.85;;;2.58;;
13432;SDS011;6789;47.678;9.158;2022-09-02T07:21:42;2.58;;;2.30;;
13432;SDS011;6789;47.678;9.158;2022-09-02T07:26:58;2.47;;;2.28;;
13432;SDS011;6789;47.678;9.158;2022-09-02T07:32:09;3.10;;;2.60;;
13432;SDS011;6789;47.678;9.158;2022-09-02T07:37:17;3.30;;;2.60;;
13432;SDS011;6789;47.678;9.158;2022-09-02T07:42:23;2.47;;;2.28;;
13432;SDS011;6789;47.678;9.158;2022-09-02T07:47:29;3.55;;;2.58;;
13432;SDS011;6789;47.678;9.158;2022-09-02T07:52:41;3.10;;;2.30;;
13432;SDS011;6789;47.678;9.158;2022-09-02T07:57:51;2.40;;;2.20;;
13432;SDS011;6789;47.678;9.158;2022-09-02T08:03:01;2.42;;;2.13;;
13432;SDS011;6789;47.678;9.158;2022-09-02T08:08:09;4.88;;;2.75;;
13432;SDS011;6789;47.678;9.158;2022-09-02T08:13:18;3.35;;;2.40;;
13432;SDS011;6789;47.678;9.158;2022-09-02T08:18:49;2.80;;;2.60;;
13432;SDS011;6789;47.678;9.158;2022-09-02T08:23:59;2.85;;;2.40;;
13432;SDS011;6789;47.678;9.158;2022-09-02T08:29:23;2.78;;;2.45;;
13432;SDS011;6789;47.678;9.158;2022-09-02T08:34:39;3.50;;;2.70;;
13432;SDS011;6789;47.678;9.158;2022-09-02T08:40:21;2.33;;;2.13;;
13432;SDS011;6789;47.678;9.158;2022-09-02T08:52:24;3.58;;;2.10;;
13432;SDS011;6789;47.678;9.158;2022-09-02T08:58:03;5.72;;;2.60;;
13432;SDS011;6789;47.678;9.158;2022-09-02T09:14:35;4.22;;;2.25;;
13432;SDS011;6789;47.678;9.158;2022-09-02T09:20:44;2.40;;;2.20;;
13432;SDS011;6789;47.678;9.158;2022-09-02T09:26:17;2.65;;;2.45;;
13432;SDS011;6789;47.678;9.158;2022-09-02T09:31:56;2.60;;;2.30;;
13432;SDS011;6789;47.678;9.158;2022-09-02T09:37:41;3.75;;;2.25;;
13432;SDS011;6789;47.678;9.158;2022-09-02T09:48:25;3.00;;;2.70;;
13432;SDS011;6789;47.678;9.158;2022-09-02T09:53:43;3.03;;;2.72;;
13432;SDS011;6789;47.678;9.158;2022-09-02T09:59:36;8.27;;;2.50;;
13432;SDS011;6789;47.678;9.158;2022-09-02T10:05:38;3.83;;;2.72;;
13432;SDS011;6789;47.678;9.158;2022-09-02T10:10:53;4.13;;;2.53;;
13432;SDS011;6789;47.678;9.158;2022-09-02T10:16:39;3.67;;;2.70;;
13432;SDS011;6789;47.678;9.158;2022-09-02T10:27:30;3.35;;;2.40;;
13432;SDS011;6789;47.678;9.158;2022-09-02T11:18:40;4.32;;;2.40;;
13432;SDS011;6789;47.678;9.158;2022-09-02T11:30:24;6.65;;;2.70;;
13432;SDS011;6789;47.678;9.158;2022-09-02T11:36:02;3.03;;;2.72;;
13432;SDS011;6789;47.678;9.158;2022-09-02T11:41:29;5.38;;;2.92;;
13432;SDS011;6789;47.678;9.158;2022-09-02T11:58:43;4.28;;;2.85;;
13432;SDS011;6789;47.678;9.158;2022-09-02T12:15:08;4.25;;;2.70;;
13432;SDS011;6789;47.678;9.158;2022-09-02T12:25:55;4.22;;;3.00;;
13432;SDS011;6789;47.678;9.158;2022-09-02T12:37:01;3.00;;;2.20;;
13432;SDS011;6789;47.678;9.158;2022-09-02T12:42:21;3.10;;;2.72;;
13432;SDS011;6789;47.678;9.158;2022-09-02T12:59:07;2.80;;;2.60;;
13432;SDS011;6789;47.678;9.158;2022-09-02T13:04:22;2.90;;;2.70;;
13432;SDS011;6789;47.678;9.158;2022-09-02T13:22:37;2.90;;;2.38;;
13432;SDS011;6789;47.678;9.158;2022-09-02T13:27:31;2.88;;;2.50;;
13432;SDS011;6789;47.678;9.158;2022-09-02T13:33:05;4.13;;;2.30;;
13432;SDS011;6789;47.678;9.158;2022-09-02T13:38:31;4.18;;;2.50;;
13432;SDS011;6789;47.678;9.158;2022-09-02T13:44:03;4.47;;;2.63;;
13432;SDS011;6789;47.678;9.158;2022-09-02T13:49:24;2.90;;;2.58;;
13432;SDS011;6789;47.678;9.158;2022-09-02T13:54:47;4.35;;;2.90;;
13432;SDS011;6789;47.678;9.158;2022-09-02T14:00:33;3.53;;;2.60;;
13432;SDS011;6789;47.678;9.158;2022-09-02T14:05:57;2.70;;;2.50;;
13432;SDS011;6789;47.678;9.158;2022-09-02T14:11:41;3.65;;;2.35;;
13432;SDS011;6789;47.678;9.158;2022-09-02T14:23:12;5.00;;;2.40;;
13432;SDS011;6789;47.678;9.158;2022-09-02T14:28:33;2.88;;;2.53;;
13432;SDS011;6789;47.678;9.158;2022-09-02T14:33:45;5.38;;;2.90;;
13432;SDS011;6789;47.678;9.158;2022-09-02T14:39:15;2.90;;;2.60;;
13432;SDS011;6789;47.678;9.158;2022-09-02T14:44:25;2.50;;;2.30;;
13432;SDS011;6789;47.678;9.158;2022-09-02T14:49:48;3.00;;;2.70;;
13432;SDS011;6789;47.678;9.158;2022-09-02T14:55:25;2.60;;;2.40;;
13432;SDS011;6789;47.678;9.158;2022-09-02T15:01:09;2.58;;;2.17;;
13432;SDS011;6789;47.678;9.158;2022-09-02T15:06:20;3.13;;;2.33;;
13432;SDS011;6789;47.678;9.158;2022-09-02T15:12:12;2.70;;;2.50;;
13432;SDS011;6789;47.678;9.158;2022-09-02T15:18:04;2.70;;;2.50;;
13432;SDS011;6789;47.678;9.158;2022-09-02T15:23:29;2.63;;;2.42;;
13432;SDS011;6789;47.678;9.158;2022-09-02T15:28:36;3.15;;;2.30;;
13432;SDS011;6789;47.678;9.158;2022-09-02T15:34:06;2.92;;;2.50;;
13432;SDS011;6789;47.678;9.158;2022-09-02T15:44:53;2.42;;;2.22;;
13432;SDS011;6789;47.678;9.158;2022-09-02T15:50:23;2.35;;;2.15;;
13432;SDS011;6789;47.678;9.158;2022-09-02T15:55:42;2.72;;;2.08;;
13432;SDS011;6789;47.678;9.158;2022-09-02T16:00:51;2.50;;;2.30;;
13432;SDS011;6789;47.678;9.158;2022-09-02T16:06:09;3.35;;;2.30;;
13432;SDS011;6789;47.678;9.158;2022-09-02T16:11:17;3.08;;;2.33;;
13432;SDS011;6789;47.678;9.158;2022-09-02T16:16:29;3.20;;;2.90;;
13432;SDS011;6789;47.678;9.158;2022-09-02T16:21:46;2.78;;;2.38;;
13432;SDS011;6789;47.678;9.158;2022-09-02T16:27:11;3.72;;;2.60;;
13432;SDS011;6789;47.678;9.158;2022-09-02T16:32:32;2.67;;;2.35;;
13432;SDS011;6789;47.678;9.158;2022-09-02T16:37:52;2.70;;;2.28;;
13432;SDS011;6789;47.678;9.158;2022-09-02T16:43:04;3.08;;;2.83;;
13432;SDS011;6789;47.678;9.158;2022-09-02T16:48:36;2.75;;;2.53;;
13432;SDS011;6789;47.678;9.158;2022-09-02T16:53:44;2.70;;;2.50;;
13432;SDS011;6789;47.678;9.158;2022-09-02T16:59:18;5.10;;;2.80;;
13432;SDS011;6789;47.678;9.158;2022-09-02T17:04:58;2.83;;;2.63;;
13432;SDS011;6789;47.678;9.158;2022-09-02T17:10:06;2.83;;;2.42;;
13432;SDS011;6789;47.678;9.158;2022-09-02T17:15:21;2.80;;;2.60;;
13432;SDS011;6789;47.678;9.158;2022-09-02T17:20:28;3.22;;;2.92;;
13432;SDS011;6789;47.678;9.158;2022-09-02T17:25:56;4.15;;;2.97;;
13432;SDS011;6789;47.678;9.158;2022-09-02T17:31:54;3.13;;;2.70;;
13432;SDS011;6789;47.678;9.158;2022-09-02T17:37:04;2.67;;;2.47;;
13432;SDS011;6789;47.678;9.158;2022-09-02T17:48:36;3.00;;;2.70;;
13432;SDS011;6789;47.678;9.158;2022-09-02T17:53:44;3.42;;;2.75;;
13432;SDS011;6789;47.678;9.158;2022-09-02T17:59:22;3.33;;;3.03;;
13432;SDS011;6789;47.678;9.158;2022-09-02T18:05:30;6.50;;;3.47;;
13432;SDS011;6789;47.678;9.158;2022-09-02T18:11:05;4.03;;;3.63;;
13432;SDS011;6789;47.678;9.158;2022-09-02T18:16:33;4.50;;;3.70;;
13432;SDS011;6789;47.678;9.158;2022-09-02T18:22:22;4.80;;;3.65;;
13432;SDS011;6789;47.678;9.158;2022-09-02T18:27:52;4.18;;;3.65;;
13432;SDS011;6789;47.678;9.158;2022-09-02T18:44:58;8.65;;;5.53;;
13432;SDS011;6789;47.678;9.158;2022-09-02T18:50:10;8.73;;;4.55;;
13432;SDS011;6789;47.678;9.158;2022-09-02T18:55:33;5.45;;;3.13;;
13432;SDS011;6789;47.678;9.158;2022-09-02T19:00:47;3.90;;;3.25;;
13432;SDS011;6789;47.678;9.158;2022-09-02T19:06:00;4.40;;;3.55;;
13432;SDS011;6789;47.678;9.158;2022-09-02T19:11:20;3.83;;;3.42;;
13432;SDS011;6789;47.678;9.158;2022-09-02T19:16:33;5.30;;;3.30;;
13432;SDS011;6789;47.678;9.158;2022-09-02T19:21:44;5.93;;;3.42;;
13432;SDS011;6789;47.678;9.158;2022-09-02T19:27:05;6.68;;;4.72;;
13432;SDS011;6789;47.678;9.158;2022-09-02T19:32:16;7.00;;;5.40;;
13432;SDS011;6789;47.678;9.158;2022-09-02T19:37:34;6.85;;;4.57;;
13432;SDS011;6789;47.678;9.158;2022-09-02T19:42:43;4.75;;;3.50;;
13432;SDS011;6789;47.678;9.158;2022-09-02T19:47:50;6.25;;;4.68;;
13432;SDS011;6789;47.678;9.158;2022-09-02T19:52:57;5.07;;;4.57;;
13432;SDS011;6789;47.678;9.158;2022-09-02T19:58:05;4.25;;;3.83;;
13432;SDS011;6789;47.678;9.158;2022-09-02T20:03:11;4.03;;;3.63;;
13432;SDS011;6789;47.678;9.158;2022-09-02T20:08:19;4.75;;;4.00;;
13432;SDS011;6789;47.678;9.158;2022-09-02T20:13:41;10.45;;;4.05;;
13432;SDS011;6789;47.678;9.158;2022-09-02T20:19:09;7.22;;;4.45;;
13432;SDS011;6789;47.678;9.158;2022-09-02T20:24:20;4.38;;;3.97;;
13432;SDS011;6789;47.678;9.158;2022-09-02T20:53:47;5.90;;;4.10;;
13432;SDS011;6789;47.678;9.158;2022-09-02T20:59:05;4.60;;;4.20;;
13432;SDS011;6789;47.678;9.158;2022-09-02T21:04:35;6.90;;;3.95;;
13432;SDS011;6789;47.678;9.158;2022-09-02T21:10:08;5.38;;;4.57;;
13432;SDS011;6789;47.678;9.158;2022-09-02T21:15:53;4.13;;;3.55;;
13432;SDS011;6789;47.678;9.158;2022-09-02T21:21:09;4.97;;;3.92;;
13432;SDS011;6789;47.678;9.158;2022-09-02T21:32:39;6.05;;;4.88;;
13432;SDS011;6789;47.678;9.158;2022-09-02T21:38:22;6.72;;;4.80;;
13432;SDS011;6789;47.678;9.158;2022-09-02T21:50:27;5.28;;;4.78;;
13432;SDS011;6789;47.678;9.158;2022-09-02T21:56:18;5.85;;;5.30;;
13432;SDS011;6789;47.678;9.158;2022-09-02T22:02:02;4.63;;;4.18;;
13432;SDS011;6789;47.678;9.158;2022-09-02T22:13:30;5.25;;;4.78;;
13432;SDS011;6789;47.678;9.158;2022-09-02T22:19:01;4.85;;;4.30;;
13432;SDS011;6789;47.678;9.158;2022-09-02T22:30:19;7.25;;;6.53;;
13432;SDS011;6789;47.678;9.158;2022-09-02T22:47:02;8.80;;;6.10;;
13432;SDS011;6789;47.678;9.158;2022-09-02T22:52:34;8.30;;;6.40;;
13432;SDS011;6789;47.678;9.158;2022-09-02T22:58:14;6.82;;;5.65;;
13432;SDS011;6789;47.678;9.158;2022-09-02T23:09:35;6.10;;;4.85;;
13432;SDS011;6789;47.678;9.158;2022-09-02T23:15:06;4.90;;;4.40;;
13432;SDS011;6789;47.678;9.158;2022-09-02T23:20:51;5.82;;;5.13;;
13432;SDS011;6789;47.678;9.158;2022-09-02T23:27:10;8.38;;;4.55;;
13432;SDS011;6789;47.678;9.158;2022-09-02T23:39:02;5.70;;;4.72;;
